EZY85KM LXGB-EGGD
Flight info
| Callsign | EZY85KM |
|---|---|
| Flight time | N/A |
| Altitude | 37000 |
| Route | LXGB/27 N0445F370 DCT PIMOS M985 MGA DCT BLN DCT MORAL DCT BEXID DCT VTB DCT SIE DCT XERMA DCT ARLUN DCT BUGIX DCT UNGAS DCT DELOG DCT NOVAN DCT RUSIB DCT NOZHU DCT SHIRI DCT TOJAQ TOJA2B EGGD/09 |
| Aircraft | A320/M-GEZOA/L |
Departure
| Time | 2026-05-04 21:59 |
|---|---|
| Airport | Gibraltar Airport (LXGB) |
Arrival
| Time | N/A |
|---|---|
| Airport | Bristol Airport (EGGD) |
| Time | Latitude | Longitude | Altitude | Speed | Heading |
|---|---|---|---|---|---|
| 2026-05-04 21:55 | 36.15232 | -5.34578 | 18 ft | 14 kts | 88° |
| 2026-05-04 21:55 | 36.15235 | -5.34458 | 17 ft | 14 kts | 88° |
| 2026-05-04 21:55 | 36.15241 | -5.34321 | 15 ft | 17 kts | 86° |
| 2026-05-04 21:56 | 36.15208 | -5.34227 | 18 ft | 8 kts | 165° |
| 2026-05-04 21:56 | 36.15163 | -5.34215 | 20 ft | 7 kts | 154° |
| 2026-05-04 21:56 | 36.15147 | -5.34167 | 18 ft | 6 kts | 92° |
| 2026-05-04 21:56 | 36.15147 | -5.34149 | 18 ft | 7 kts | 85° |
| 2026-05-04 21:57 | 36.15174 | -5.34044 | 19 ft | 11 kts | 110° |
| 2026-05-04 21:57 | 36.15150 | -5.34076 | 19 ft | 8 kts | 274° |
| 2026-05-04 21:57 | 36.15151 | -5.34109 | 19 ft | 0 kts | 268° |
| 2026-05-04 21:58 | 36.15147 | -5.34253 | 18 ft | 54 kts | 268° |
| 2026-05-04 21:59 | 36.15117 | -5.35056 | 24 ft | 129 kts | 267° |
| 2026-05-04 21:59 | 36.15061 | -5.36320 | 493 ft | 153 kts | 265° |
| 2026-05-04 21:59 | 36.15009 | -5.37634 | 1416 ft | 151 kts | 269° |
| 2026-05-04 21:59 | 36.15179 | -5.38919 | 1843 ft | 164 kts | 300° |
| 2026-05-04 22:00 | 36.16145 | -5.39809 | 2079 ft | 192 kts | 343° |
| 2026-05-04 22:00 | 36.17552 | -5.39546 | 2357 ft | 227 kts | 25° |
| 2026-05-04 22:00 | 36.18860 | -5.38298 | 2788 ft | 252 kts | 37° |
| 2026-05-04 22:00 | 36.20343 | -5.37108 | 3487 ft | 257 kts | 17° |
| 2026-05-04 22:01 | 36.22073 | -5.36547 | 4346 ft | 258 kts | 6° |
| 2026-05-04 22:01 | 36.23862 | -5.36258 | 5202 ft | 262 kts | 5° |
| 2026-05-04 22:01 | 36.25096 | -5.36077 | 5744 ft | 265 kts | 3° |
| 2026-05-04 22:01 | 36.26949 | -5.35868 | 6470 ft | 272 kts | 2° |
| 2026-05-04 22:02 | 36.28855 | -5.35690 | 7198 ft | 278 kts | 1° |
| 2026-05-04 22:02 | 36.31436 | -5.35463 | 8175 ft | 284 kts | 1° |
| 2026-05-04 22:02 | 36.32773 | -5.35346 | 8684 ft | 288 kts | 0° |
| 2026-05-04 22:02 | 36.34794 | -5.35166 | 9457 ft | 292 kts | 360° |
| 2026-05-04 22:03 | 36.36833 | -5.34980 | 10183 ft | 297 kts | 359° |
| 2026-05-04 22:03 | 36.38938 | -5.34789 | 10472 ft | 318 kts | 360° |
| 2026-05-04 22:03 | 36.41230 | -5.34586 | 10667 ft | 340 kts | 360° |
| 2026-05-04 22:03 | 36.43627 | -5.34365 | 11188 ft | 349 kts | 0° |
| 2026-05-04 22:04 | 36.46072 | -5.34129 | 11852 ft | 353 kts | 0° |
| 2026-05-04 22:04 | 36.48545 | -5.33886 | 12532 ft | 357 kts | 0° |
| 2026-05-04 22:04 | 36.51030 | -5.33645 | 13178 ft | 361 kts | 0° |
| 2026-05-04 22:04 | 36.53552 | -5.33400 | 13794 ft | 365 kts | 360° |
| 2026-05-04 22:05 | 36.56099 | -5.33153 | 14398 ft | 368 kts | 360° |
| 2026-05-04 22:05 | 36.58654 | -5.32905 | 14965 ft | 371 kts | 360° |
| 2026-05-04 22:05 | 36.61245 | -5.32656 | 15551 ft | 374 kts | 360° |
| 2026-05-04 22:05 | 36.63858 | -5.32406 | 16130 ft | 377 kts | 360° |
| 2026-05-04 22:06 | 36.66480 | -5.32066 | 16694 ft | 384 kts | 7° |
| 2026-05-04 22:06 | 36.69027 | -5.30882 | 17259 ft | 397 kts | 27° |
| 2026-05-04 22:06 | 36.71235 | -5.28756 | 17760 ft | 406 kts | 38° |
| 2026-05-04 22:06 | 36.73384 | -5.26364 | 17907 ft | 421 kts | 39° |
| 2026-05-04 22:07 | 36.75634 | -5.23951 | 18024 ft | 432 kts | 32° |
| 2026-05-04 22:07 | 36.78183 | -5.21990 | 18180 ft | 441 kts | 27° |
| 2026-05-04 22:07 | 36.80893 | -5.20002 | 18368 ft | 451 kts | 27° |
| 2026-05-04 22:07 | 36.83578 | -5.18042 | 18696 ft | 455 kts | 27° |
| 2026-05-04 22:08 | 36.86358 | -5.16018 | 19095 ft | 458 kts | 26° |
| 2026-05-04 22:08 | 36.89121 | -5.14005 | 19486 ft | 460 kts | 26° |
| 2026-05-04 22:08 | 36.91868 | -5.11998 | 19861 ft | 463 kts | 26° |
| 2026-05-04 22:08 | 36.94691 | -5.09932 | 20242 ft | 466 kts | 26° |
| 2026-05-04 22:09 | 36.97494 | -5.07876 | 20606 ft | 468 kts | 26° |
| 2026-05-04 22:09 | 37.00269 | -5.05836 | 20954 ft | 471 kts | 26° |
| 2026-05-04 22:09 | 37.03105 | -5.03745 | 21301 ft | 473 kts | 26° |
| 2026-05-04 22:09 | 37.05962 | -5.01640 | 21650 ft | 476 kts | 26° |
| 2026-05-04 22:10 | 37.08821 | -4.99532 | 21994 ft | 478 kts | 26° |
| 2026-05-04 22:10 | 37.11693 | -4.97415 | 22336 ft | 480 kts | 26° |
| 2026-05-04 22:10 | 37.14581 | -4.95284 | 22670 ft | 483 kts | 26° |
| 2026-05-04 22:10 | 37.17482 | -4.93141 | 22991 ft | 485 kts | 26° |
| 2026-05-04 22:11 | 37.20404 | -4.90979 | 23291 ft | 488 kts | 26° |
| 2026-05-04 22:11 | 37.23329 | -4.88813 | 23607 ft | 490 kts | 26° |
| 2026-05-04 22:11 | 37.26267 | -4.86633 | 23854 ft | 493 kts | 26° |
| 2026-05-04 22:11 | 37.29231 | -4.84433 | 24096 ft | 495 kts | 26° |
| 2026-05-04 22:12 | 37.32204 | -4.82226 | 24307 ft | 497 kts | 26° |
| 2026-05-04 22:12 | 37.35195 | -4.80004 | 24555 ft | 499 kts | 26° |
| 2026-05-04 22:12 | 37.38186 | -4.77782 | 24789 ft | 501 kts | 26° |
| 2026-05-04 22:12 | 37.41200 | -4.75542 | 25022 ft | 503 kts | 26° |
| 2026-05-04 22:13 | 37.44227 | -4.73292 | 25248 ft | 505 kts | 26° |
| 2026-05-04 22:13 | 37.47255 | -4.71039 | 25473 ft | 507 kts | 26° |
| 2026-05-04 22:13 | 37.50299 | -4.68769 | 25690 ft | 509 kts | 26° |
| 2026-05-04 22:13 | 37.53348 | -4.66493 | 25900 ft | 511 kts | 25° |
| 2026-05-04 22:14 | 37.55395 | -4.64964 | 26034 ft | 513 kts | 25° |